Terminal Aerodrome Forecast
Issued by NWS Greer, SC

Home | Current Version | Previous Version | Text Only | Print | Product List | Glossary On
Versions: 1 2 3 4 5 6 7 8 9 10 11 12 13 14 15 16
000
FTUS42 KGSP 180500
TAFAVL
TAF
KAVL 180534Z 1806/1906 00000KT P6SM BKN250
     FM180900 VRB03KT P6SM FEW020 OVC200
     FM181600 16006KT P6SM SCT050 OVC100
     FM182300 36010KT P6SM -RA OVC035
     FM190200 35012KT 5SM SHRA BR OVC010=

USA.gov is the U.S. government's official web portal to all federal, state and local government web resources and services.